Time;durP1;ratioP1;P1;durP2;ratioP2;P2;SDS_P1;SDS_P2;PMS_P1;PMS_P2;Temp;Humidity;BMP_temperature;BMP_pressure;BME280_temperature;BME280_humidity;BME280_pressure;Samples;Min_cycle;Max_cycle;Signal;HPM_P1;HPM_P2
2021/12/30 00:01:56;;;;;;;32.40;4.45;;;;;;;;;;5093744;28;20231;-62
2021/12/30 00:04:22;;;;;;;34.88;5.45;;;;;;;;;;5092417;28;20168;-64
2021/12/30 00:06:49;;;;;;;33.22;4.63;;;;;;;;;;5092936;28;20032;-63
2021/12/30 00:09:15;;;;;;;32.53;5.47;;;;;;;;;;5093512;28;20094;-63
2021/12/30 00:11:42;;;;;;;26.13;4.65;;;;;;;;;;5091066;28;20483;-63
2021/12/30 00:14:08;;;;;;;36.47;4.93;;;;;;;;;;5094401;28;20897;-62
2021/12/30 00:16:35;;;;;;;35.20;4.72;;;;;;;;;;5092883;28;20097;-63
2021/12/30 00:19:01;;;;;;;31.48;4.63;;;;;;;;;;5090643;28;20050;-62
2021/12/30 00:21:27;;;;;;;33.33;5.25;;;;;;;;;;5092253;28;20055;-61
2021/12/30 00:23:53;;;;;;;26.85;4.75;;;;;;;;;;5093237;28;20077;-62
2021/12/30 00:26:19;;;;;;;38.97;5.30;;;;;;;;;;5092906;28;20127;-63
2021/12/30 00:28:46;;;;;;;31.30;4.93;;;;;;;;;;5090434;28;20048;-64
2021/12/30 00:31:12;;;;;;;35.25;5.65;;;;;;;;;;5093173;28;20040;-63
2021/12/30 00:33:39;;;;;;;34.13;4.63;;;;;;;;;;5091461;28;20436;-62
2021/12/30 00:36:06;;;;;;;36.95;4.85;;;;;;;;;;5092145;28;20082;-62
2021/12/30 00:38:33;;;;;;;38.35;4.70;;;;;;;;;;5092629;28;20099;-62
2021/12/30 00:40:59;;;;;;;27.60;4.95;;;;;;;;;;5091834;28;20047;-62
2021/12/30 00:43:25;;;;;;;36.08;5.72;;;;;;;;;;5093575;28;20040;-62
2021/12/30 00:45:52;;;;;;;34.33;4.70;;;;;;;;;;5092460;28;20443;-65
2021/12/30 00:48:18;;;;;;;28.38;4.38;;;;;;;;;;5091524;28;20048;-63
2021/12/30 00:50:46;;;;;;;27.70;5.53;;;;;;;;;;5085495;28;20051;-63
2021/12/30 00:53:12;;;;;;;27.42;5.45;;;;;;;;;;5088227;28;20032;-64
2021/12/30 00:55:39;;;;;;;31.23;4.53;;;;;;;;;;5071303;28;20068;-64
2021/12/30 00:58:05;;;;;;;35.53;5.43;;;;;;;;;;5078729;28;20064;-63
2021/12/30 01:00:33;;;;;;;32.70;5.65;;;;;;;;;;5115600;27;20449;-64
2021/12/30 01:02:59;;;;;;;26.77;4.95;;;;;;;;;;5092936;28;20074;-64
2021/12/30 01:05:25;;;;;;;34.28;5.45;;;;;;;;;;5091163;28;20036;-65
2021/12/30 01:07:51;;;;;;;36.75;5.28;;;;;;;;;;5092175;28;20032;-63
2021/12/30 01:10:20;;;;;;;33.65;4.70;;;;;;;;;;5091367;28;20035;-62
2021/12/30 01:12:46;;;;;;;32.80;4.88;;;;;;;;;;5091514;28;20044;-63
2021/12/30 01:15:13;;;;;;;32.53;5.88;;;;;;;;;;5092029;28;20050;-64
2021/12/30 01:20:11;;;;;;;33.10;5.53;;;;;;;;;;5092162;28;20556;-65
2021/12/30 01:22:37;;;;;;;29.88;4.00;;;;;;;;;;5090246;28;20056;-63
2021/12/30 01:25:04;;;;;;;33.85;5.03;;;;;;;;;;5091355;28;20127;-62
2021/12/30 01:27:30;;;;;;;33.13;5.65;;;;;;;;;;5095547;28;20057;-63
2021/12/30 01:29:56;;;;;;;35.22;5.63;;;;;;;;;;5091677;28;20074;-65
2021/12/30 01:32:22;;;;;;;29.98;4.00;;;;;;;;;;5092780;28;20047;-64
2021/12/30 01:34:48;;;;;;;33.67;5.75;;;;;;;;;;5091335;28;20036;-66
2021/12/30 01:37:19;;;;;;;29.60;4.28;;;;;;;;;;5089854;28;20071;-63
2021/12/30 01:39:45;;;;;;;32.97;4.68;;;;;;;;;;5091845;28;20101;-62
2021/12/30 01:42:11;;;;;;;34.10;5.00;;;;;;;;;;5091797;28;20549;-64
2021/12/30 01:44:37;;;;;;;36.83;4.82;;;;;;;;;;5091459;28;20044;-64
2021/12/30 01:47:05;;;;;;;37.78;4.68;;;;;;;;;;5092556;28;20486;-64
2021/12/30 01:49:31;;;;;;;36.03;4.60;;;;;;;;;;5090649;28;20044;-65
2021/12/30 01:51:58;;;;;;;28.17;4.70;;;;;;;;;;5091237;28;20402;-62
2021/12/30 01:54:25;;;;;;;43.60;6.10;;;;;;;;;;5089644;28;20433;-64
2021/12/30 01:56:51;;;;;;;31.85;5.95;;;;;;;;;;5089777;28;20093;-64
2021/12/30 01:59:21;;;;;;;31.63;6.13;;;;;;;;;;5091152;28;20070;-62
2021/12/30 02:01:53;;;;;;;40.28;7.40;;;;;;;;;;5092622;28;20040;-63
2021/12/30 02:04:19;;;;;;;35.63;6.20;;;;;;;;;;5090383;28;20050;-62
2021/12/30 02:06:45;;;;;;;44.13;7.63;;;;;;;;;;5090732;28;20065;-64
2021/12/30 02:09:11;;;;;;;41.78;8.52;;;;;;;;;;5090342;28;20055;-63
2021/12/30 02:11:37;;;;;;;46.88;8.82;;;;;;;;;;5088689;28;20040;-62
2021/12/30 02:14:03;;;;;;;45.47;8.52;;;;;;;;;;5091452;28;20032;-62
2021/12/30 02:16:29;;;;;;;39.72;9.00;;;;;;;;;;5090105;28;20086;-63
2021/12/30 02:18:55;;;;;;;36.55;8.45;;;;;;;;;;5090067;28;20050;-63
2021/12/30 02:21:22;;;;;;;38.65;8.15;;;;;;;;;;5090304;28;20439;-63
2021/12/30 02:23:48;;;;;;;40.58;8.43;;;;;;;;;;5091166;28;20100;-64
2021/12/30 02:26:16;;;;;;;37.08;7.97;;;;;;;;;;5089932;28;20063;-61
2021/12/30 02:28:42;;;;;;;42.90;8.70;;;;;;;;;;5091116;28;20115;-61
2021/12/30 02:31:16;;;;;;;43.03;8.30;;;;;;;;;;5088350;28;20036;-63
2021/12/30 02:33:43;;;;;;;47.92;9.13;;;;;;;;;;5092126;28;20036;-61
2021/12/30 02:36:10;;;;;;;37.15;9.52;;;;;;;;;;5070283;28;20044;-65
2021/12/30 02:38:36;;;;;;;42.85;10.20;;;;;;;;;;5091419;28;20053;-61
2021/12/30 02:41:03;;;;;;;40.65;9.40;;;;;;;;;;5090569;28;20067;-62
2021/12/30 02:43:31;;;;;;;47.08;10.60;;;;;;;;;;5091251;28;20032;-63
2021/12/30 02:45:57;;;;;;;50.28;10.55;;;;;;;;;;5091216;28;20477;-63
2021/12/30 02:48:25;;;;;;;34.85;9.65;;;;;;;;;;5090659;28;20039;-66
2021/12/30 02:50:53;;;;;;;46.10;10.70;;;;;;;;;;5089008;28;20562;-62
2021/12/30 02:53:20;;;;;;;45.85;10.93;;;;;;;;;;5086060;28;20040;-61
2021/12/30 02:55:47;;;;;;;41.67;9.65;;;;;;;;;;5089990;28;20059;-64
2021/12/30 02:58:13;;;;;;;43.67;10.68;;;;;;;;;;5087098;28;20123;-64
2021/12/30 03:00:39;;;;;;;40.70;10.68;;;;;;;;;;5089948;28;20039;-63
2021/12/30 03:03:05;;;;;;;49.17;9.82;;;;;;;;;;5081871;28;20044;-62
2021/12/30 03:05:31;;;;;;;45.20;10.98;;;;;;;;;;5081751;28;20055;-63
2021/12/30 03:07:57;;;;;;;46.25;11.05;;;;;;;;;;5089545;28;20039;-63
2021/12/30 03:10:25;;;;;;;46.22;10.65;;;;;;;;;;5088792;28;20044;-63
2021/12/30 03:13:03;;;;;;;45.08;10.52;;;;;;;;;;5088364;28;20036;-64
2021/12/30 03:15:31;;;;;;;49.67;10.32;;;;;;;;;;5088331;28;20044;-65
2021/12/30 03:17:57;;;;;;;54.90;10.32;;;;;;;;;;5089696;28;20032;-63
2021/12/30 03:20:24;;;;;;;46.80;10.10;;;;;;;;;;5087155;28;20060;-64
2021/12/30 03:22:50;;;;;;;49.15;10.88;;;;;;;;;;5090571;28;20047;-65
2021/12/30 03:25:16;;;;;;;45.90;9.60;;;;;;;;;;5089549;28;20050;-65
2021/12/30 03:27:43;;;;;;;47.50;9.68;;;;;;;;;;5089247;28;20043;-64
2021/12/30 03:30:11;;;;;;;50.85;10.25;;;;;;;;;;5090395;28;20044;-64
2021/12/30 03:32:37;;;;;;;41.60;9.60;;;;;;;;;;5089320;28;20406;-64
2021/12/30 03:35:03;;;;;;;44.40;9.35;;;;;;;;;;5088144;28;20433;-63
2021/12/30 03:37:29;;;;;;;35.35;9.63;;;;;;;;;;5088686;28;20036;-63
2021/12/30 03:39:55;;;;;;;36.97;9.40;;;;;;;;;;5086678;28;20509;-63
2021/12/30 03:42:21;;;;;;;49.72;10.00;;;;;;;;;;5088306;28;20502;-64
2021/12/30 03:44:48;;;;;;;48.47;9.60;;;;;;;;;;5090122;28;20075;-67
2021/12/30 03:47:18;;;;;;;41.10;10.35;;;;;;;;;;5090310;28;20044;-62
2021/12/30 03:49:46;;;;;;;43.85;10.18;;;;;;;;;;5089944;28;20051;-66
2021/12/30 03:52:15;;;;;;;50.60;10.52;;;;;;;;;;5088753;28;20040;-64
2021/12/30 03:54:41;;;;;;;48.53;9.75;;;;;;;;;;5090077;28;20071;-64
2021/12/30 03:57:07;;;;;;;39.90;10.75;;;;;;;;;;5089642;28;20036;-64
2021/12/30 03:59:33;;;;;;;41.75;10.02;;;;;;;;;;5089529;28;20116;-64
2021/12/30 04:01:59;;;;;;;40.72;9.13;;;;;;;;;;5088296;28;20143;-62
2021/12/30 04:04:25;;;;;;;43.80;10.27;;;;;;;;;;5089697;28;20431;-61
2021/12/30 04:06:51;;;;;;;46.92;9.45;;;;;;;;;;5089364;28;20068;-63
2021/12/30 04:09:18;;;;;;;50.17;9.50;;;;;;;;;;5091075;28;20048;-62
2021/12/30 04:11:44;;;;;;;47.28;10.15;;;;;;;;;;5091631;28;20063;-62
2021/12/30 04:14:10;;;;;;;45.47;9.20;;;;;;;;;;5087517;28;20063;-62
2021/12/30 04:16:36;;;;;;;40.67;8.65;;;;;;;;;;5089604;28;20036;-63
2021/12/30 04:19:03;;;;;;;56.10;10.73;;;;;;;;;;5089273;28;20036;-62
2021/12/30 04:21:29;;;;;;;47.92;10.65;;;;;;;;;;5086624;28;20048;-64
2021/12/30 04:23:55;;;;;;;62.85;11.02;;;;;;;;;;5088414;28;20044;-61
2021/12/30 04:26:21;;;;;;;65.35;11.65;;;;;;;;;;5089719;28;20075;-64
2021/12/30 04:28:47;;;;;;;61.72;11.00;;;;;;;;;;5088910;28;20036;-64
2021/12/30 04:31:13;;;;;;;49.45;10.43;;;;;;;;;;5087742;28;20502;-63
2021/12/30 04:33:39;;;;;;;53.78;10.00;;;;;;;;;;5087572;28;20079;-63
2021/12/30 04:36:06;;;;;;;46.25;10.55;;;;;;;;;;5089561;28;20067;-65
2021/12/30 04:38:32;;;;;;;44.53;10.70;;;;;;;;;;5086054;28;20040;-63
2021/12/30 04:40:59;;;;;;;48.55;11.20;;;;;;;;;;5091395;28;20127;-63
2021/12/30 04:43:25;;;;;;;37.70;10.63;;;;;;;;;;5092206;28;20067;-63
2021/12/30 04:45:52;;;;;;;47.80;11.10;;;;;;;;;;5093143;28;20046;-64
2021/12/30 04:48:18;;;;;;;34.97;10.95;;;;;;;;;;5092166;28;20043;-63
2021/12/30 04:50:45;;;;;;;40.22;10.10;;;;;;;;;;5092422;28;20398;-65
2021/12/30 04:53:12;;;;;;;33.58;11.15;;;;;;;;;;5088874;28;20028;-63
2021/12/30 04:55:38;;;;;;;27.50;9.50;;;;;;;;;;5090370;28;20055;-62
2021/12/30 04:58:05;;;;;;;32.92;10.95;;;;;;;;;;5081365;28;20753;-62
2021/12/30 05:00:31;;;;;;;34.85;10.90;;;;;;;;;;5088291;28;20048;-63
2021/12/30 05:05:23;;;;;;;34.80;12.38;;;;;;;;;;5090666;28;20048;-61
2021/12/30 05:07:49;;;;;;;37.40;13.35;;;;;;;;;;5092117;28;20059;-64
2021/12/30 05:10:15;;;;;;;38.45;14.18;;;;;;;;;;5091094;28;20044;-61
2021/12/30 05:12:41;;;;;;;32.30;13.15;;;;;;;;;;5092022;28;20048;-64
2021/12/30 05:15:07;;;;;;;49.70;14.88;;;;;;;;;;5090843;28;20043;-62
2021/12/30 05:17:35;;;;;;;49.22;15.98;;;;;;;;;;5092175;28;20032;-62
2021/12/30 05:20:01;;;;;;;38.97;16.02;;;;;;;;;;5091769;28;20044;-62
2021/12/30 05:22:27;;;;;;;58.03;17.35;;;;;;;;;;5090207;28;20170;-63
2021/12/30 05:24:53;;;;;;;45.15;16.35;;;;;;;;;;5090378;28;20101;-61
2021/12/30 05:27:19;;;;;;;49.05;16.90;;;;;;;;;;5091062;28;20040;-63
2021/12/30 05:29:46;;;;;;;50.97;16.92;;;;;;;;;;5091952;28;20048;-62
2021/12/30 05:32:12;;;;;;;50.50;17.15;;;;;;;;;;5090760;28;20187;-63
2021/12/30 05:34:38;;;;;;;52.08;16.58;;;;;;;;;;5090986;28;20676;-63
2021/12/30 05:37:04;;;;;;;53.97;18.90;;;;;;;;;;5091323;28;20042;-61
2021/12/30 05:39:30;;;;;;;59.25;18.85;;;;;;;;;;5092119;28;20036;-61
2021/12/30 05:41:56;;;;;;;53.42;17.42;;;;;;;;;;5090765;28;20137;-65
2021/12/30 05:44:22;;;;;;;60.85;17.80;;;;;;;;;;5091134;28;20535;-62
2021/12/30 05:46:48;;;;;;;75.47;18.40;;;;;;;;;;5090082;28;20040;-64
2021/12/30 05:49:14;;;;;;;55.63;17.65;;;;;;;;;;5090715;28;20446;-64
2021/12/30 05:51:41;;;;;;;64.28;18.25;;;;;;;;;;5091823;28;20040;-65
2021/12/30 05:54:07;;;;;;;75.55;18.02;;;;;;;;;;5091367;28;20543;-63
2021/12/30 05:56:34;;;;;;;56.28;17.20;;;;;;;;;;5091903;28;20478;-65
2021/12/30 05:59:00;;;;;;;61.22;18.33;;;;;;;;;;5087429;28;20070;-66
2021/12/30 06:01:26;;;;;;;62.38;17.10;;;;;;;;;;5090618;28;20581;-64
2021/12/30 06:03:52;;;;;;;75.22;18.60;;;;;;;;;;5091005;28;20048;-61
2021/12/30 06:06:18;;;;;;;63.03;17.83;;;;;;;;;;5089814;28;20069;-61
2021/12/30 06:08:44;;;;;;;60.20;17.35;;;;;;;;;;5091172;28;20430;-63
2021/12/30 06:11:10;;;;;;;57.55;16.05;;;;;;;;;;5091099;28;20157;-66
2021/12/30 06:13:37;;;;;;;62.03;15.77;;;;;;;;;;5089041;28;20079;-63
2021/12/30 06:16:03;;;;;;;57.17;17.75;;;;;;;;;;5090704;28;20036;-62
2021/12/30 06:18:29;;;;;;;48.45;15.60;;;;;;;;;;5089974;28;20043;-66
2021/12/30 06:20:55;;;;;;;51.88;16.40;;;;;;;;;;5089441;28;20070;-65
2021/12/30 06:23:21;;;;;;;48.88;16.25;;;;;;;;;;5090724;28;20055;-64
2021/12/30 06:25:47;;;;;;;47.55;16.30;;;;;;;;;;5090936;28;20383;-66
2021/12/30 06:28:13;;;;;;;56.25;16.15;;;;;;;;;;5091327;28;20401;-66
2021/12/30 06:30:39;;;;;;;45.22;15.25;;;;;;;;;;5090266;28;20075;-65
2021/12/30 06:33:05;;;;;;;46.85;15.23;;;;;;;;;;5089977;28;20372;-66
2021/12/30 06:35:34;;;;;;;43.90;15.55;;;;;;;;;;5091026;28;20456;-64
2021/12/30 06:38:00;;;;;;;41.00;14.98;;;;;;;;;;5091356;28;20050;-64
2021/12/30 06:40:26;;;;;;;40.42;15.48;;;;;;;;;;5089758;28;20056;-64
2021/12/30 06:42:52;;;;;;;46.63;15.73;;;;;;;;;;5090187;28;20067;-66
2021/12/30 06:45:18;;;;;;;46.25;15.60;;;;;;;;;;5090776;28;20068;-64
2021/12/30 06:47:45;;;;;;;36.10;14.70;;;;;;;;;;5090483;28;20036;-63
2021/12/30 06:50:13;;;;;;;30.13;13.15;;;;;;;;;;5072918;28;20032;-66
2021/12/30 06:52:39;;;;;;;29.10;12.63;;;;;;;;;;5090285;28;20040;-63
2021/12/30 06:55:06;;;;;;;26.13;12.10;;;;;;;;;;5091011;28;20032;-64
2021/12/30 06:57:32;;;;;;;27.00;11.07;;;;;;;;;;5090549;28;20079;-66
2021/12/30 06:59:58;;;;;;;26.95;10.77;;;;;;;;;;5090709;28;20036;-64
2021/12/30 07:02:25;;;;;;;24.27;9.38;;;;;;;;;;5090120;28;20047;-63
2021/12/30 07:04:51;;;;;;;15.38;7.40;;;;;;;;;;5090943;28;20471;-64
2021/12/30 07:07:17;;;;;;;18.27;7.60;;;;;;;;;;5090714;28;20044;-63
2021/12/30 07:09:43;;;;;;;9.80;5.80;;;;;;;;;;5090712;28;20040;-65
2021/12/30 07:12:09;;;;;;;8.25;4.72;;;;;;;;;;5090458;28;20071;-62
2021/12/30 07:14:35;;;;;;;8.55;4.72;;;;;;;;;;5089392;28;20090;-64
2021/12/30 07:17:01;;;;;;;9.00;3.97;;;;;;;;;;5090598;28;20508;-63
2021/12/30 07:19:27;;;;;;;4.82;3.25;;;;;;;;;;5090570;28;20044;-64
2021/12/30 07:21:53;;;;;;;4.70;2.78;;;;;;;;;;5118534;27;20047;-65
2021/12/30 07:24:20;;;;;;;4.10;2.70;;;;;;;;;;5123241;27;20119;-63
2021/12/30 07:26:47;;;;;;;4.65;2.83;;;;;;;;;;5072170;28;20043;-64
2021/12/30 07:29:13;;;;;;;4.57;3.20;;;;;;;;;;5090047;28;20046;-64
2021/12/30 07:31:39;;;;;;;5.88;3.70;;;;;;;;;;5089982;28;20044;-66
2021/12/30 07:34:05;;;;;;;6.43;3.75;;;;;;;;;;5088364;28;20097;-65
2021/12/30 07:36:31;;;;;;;6.10;4.22;;;;;;;;;;5090823;28;20386;-67
2021/12/30 07:38:57;;;;;;;7.60;4.75;;;;;;;;;;5089964;28;20094;-65
2021/12/30 07:41:23;;;;;;;6.15;4.60;;;;;;;;;;5089780;28;20062;-63
2021/12/30 07:43:49;;;;;;;7.85;5.00;;;;;;;;;;5089488;28;20036;-66
2021/12/30 07:46:15;;;;;;;10.05;5.25;;;;;;;;;;5090331;28;20035;-64
2021/12/30 07:48:41;;;;;;;10.55;5.20;;;;;;;;;;5090238;28;20039;-65
2021/12/30 07:51:07;;;;;;;8.85;6.03;;;;;;;;;;5089494;28;20036;-67
2021/12/30 07:53:34;;;;;;;7.78;5.38;;;;;;;;;;5090344;28;20043;-63
2021/12/30 07:56:03;;;;;;;10.05;6.15;;;;;;;;;;5090237;28;20032;-65
2021/12/30 07:58:29;;;;;;;10.05;6.22;;;;;;;;;;5090039;28;20040;-65
2021/12/30 08:00:55;;;;;;;12.90;6.55;;;;;;;;;;5089869;28;20106;-63
2021/12/30 08:03:21;;;;;;;12.73;6.32;;;;;;;;;;5089862;28;20036;-67
2021/12/30 08:05:48;;;;;;;10.25;6.30;;;;;;;;;;5090209;28;20047;-63
2021/12/30 08:08:14;;;;;;;13.00;6.47;;;;;;;;;;5090187;28;20108;-64
2021/12/30 08:10:40;;;;;;;13.77;7.30;;;;;;;;;;5090029;28;20071;-67
2021/12/30 08:13:06;;;;;;;15.98;8.25;;;;;;;;;;5090002;28;20120;-63
2021/12/30 08:15:32;;;;;;;15.20;8.20;;;;;;;;;;5093813;28;20043;-65
2021/12/30 08:17:58;;;;;;;16.33;8.38;;;;;;;;;;5094167;28;20032;-64
2021/12/30 08:20:24;;;;;;;15.77;8.93;;;;;;;;;;5093923;28;20506;-64
2021/12/30 08:22:51;;;;;;;16.48;9.25;;;;;;;;;;5093909;28;20035;-63
2021/12/30 08:25:18;;;;;;;16.08;9.35;;;;;;;;;;5092978;28;20482;-64
2021/12/30 08:27:44;;;;;;;20.40;9.60;;;;;;;;;;5092113;28;20043;-64
2021/12/30 08:30:13;;;;;;;17.75;9.30;;;;;;;;;;5093453;28;20032;-65
2021/12/30 08:32:40;;;;;;;15.95;8.38;;;;;;;;;;5093814;28;20122;-65
2021/12/30 08:35:07;;;;;;;16.42;8.98;;;;;;;;;;5092962;28;20047;-62
2021/12/30 08:37:34;;;;;;;13.88;7.75;;;;;;;;;;5094237;28;20079;-62
2021/12/30 08:40:01;;;;;;;13.60;7.75;;;;;;;;;;5092622;28;20071;-65
2021/12/30 08:42:29;;;;;;;18.20;6.55;;;;;;;;;;5094339;28;20044;-66
2021/12/30 08:44:59;;;;;;;11.57;6.47;;;;;;;;;;5094038;28;20460;-63
2021/12/30 08:47:26;;;;;;;18.95;6.80;;;;;;;;;;5092888;28;20040;-65
2021/12/30 08:49:53;;;;;;;10.85;5.63;;;;;;;;;;5093982;28;20035;-64
2021/12/30 08:52:21;;;;;;;12.52;5.82;;;;;;;;;;5093808;28;20170;-63
2021/12/30 08:54:47;;;;;;;15.55;5.53;;;;;;;;;;5093787;28;20040;-64
2021/12/30 08:57:14;;;;;;;11.27;5.07;;;;;;;;;;5093629;28;20039;-67
2021/12/30 08:59:40;;;;;;;12.43;5.57;;;;;;;;;;5092599;28;20050;-62
2021/12/30 09:02:07;;;;;;;14.60;5.25;;;11.80;99.90;;;;;;5093575;28;20048;-66
2021/12/30 09:04:33;;;;;;;11.23;4.78;;;;;;;;;;5093820;28;20339;-65
2021/12/30 09:07:00;;;;;;;10.45;5.13;;;;;;;;;;5093488;28;20040;-63
2021/12/30 09:09:27;;;;;;;10.55;5.80;;;;;;;;;;5092234;28;20501;-63
2021/12/30 09:11:53;;;;;;;15.38;6.03;;;;;;;;;;5092190;28;20052;-65
2021/12/30 09:14:20;;;;;;;10.75;6.13;;;;;;;;;;5093234;28;20077;-64
2021/12/30 09:16:48;;;;;;;17.17;6.90;;;;;;;;;;5093553;28;20562;-64
2021/12/30 09:19:14;;;;;;;12.30;6.55;;;;;;;;;;5093152;28;20051;-64
2021/12/30 09:21:40;;;;;;;17.67;8.32;;;;;;;;;;5092018;28;20087;-66
2021/12/30 09:24:07;;;;;;;10.73;7.50;;;;;;;;;;5092824;28;20067;-62
2021/12/30 09:26:33;;;;;;;14.73;8.15;;;;;;;;;;5093491;28;20453;-67
2021/12/30 09:29:00;;;;;;;17.00;8.10;;;;;;;;;;5093403;28;20068;-62
2021/12/30 09:31:28;;;;;;;18.23;7.70;;;;;;;;;;5092964;28;20093;-63
2021/12/30 09:33:54;;;;;;;9.25;6.85;;;;;;;;;;5092059;28;20040;-66
2021/12/30 09:36:22;;;;;;;15.55;7.93;;;;;;;;;;5092802;28;20024;-66
2021/12/30 09:38:49;;;;;;;15.65;8.25;;;;;;;;;;5093336;28;20050;-66
2021/12/30 09:41:15;;;;;;;12.45;7.20;;;;;;;;;;5091395;28;20043;-66
2021/12/30 09:43:41;;;;;;;15.02;7.65;;;;;;;;;;5093226;28;20039;-63
2021/12/30 09:46:07;;;;;;;13.13;6.95;;;;;;;;;;5092809;28;20040;-65
2021/12/30 09:48:33;;;;;;;16.38;6.82;;;;;;;;;;5092839;28;20047;-64
2021/12/30 09:50:59;;;;;;;15.65;7.20;;;;;;;;;;5092400;28;20036;-66
2021/12/30 09:53:26;;;;;;;14.13;6.47;;;;;;;;;;5092502;28;20040;-65
2021/12/30 09:55:55;;;;;;;18.77;6.50;;;;;;;;;;5092789;28;20043;-65
2021/12/30 09:58:21;;;;;;;15.75;6.28;;;;;;;;;;5092661;28;20040;-62
2021/12/30 10:00:47;;;;;;;17.90;6.03;;;;;;;;;;5091418;28;20036;-66
2021/12/30 10:03:13;;;;;;;14.52;6.22;;;;;;;;;;5092541;28;20547;-65
2021/12/30 10:05:40;;;;;;;15.25;5.80;;;;;;;;;;5091403;28;20482;-66
2021/12/30 10:08:18;;;;;;;13.07;5.18;;;;;;;;;;5092667;28;20044;-66
2021/12/30 10:10:48;;;;;;;18.48;5.70;;;;;;;;;;5092727;28;20094;-67
2021/12/30 10:13:15;;;;;;;20.30;6.35;;;;;;;;;;5091152;28;20040;-64
2021/12/30 10:15:45;;;;;;;20.67;5.50;;;;;;;;;;5092521;28;20417;-65
2021/12/30 10:18:12;;;;;;;17.98;5.72;;;;;;;;;;5092170;28;20043;-67
2021/12/30 10:20:40;;;;;;;25.23;6.22;;;;;;;;;;5091757;28;20062;-66
2021/12/30 10:23:23;;;;;;;14.30;4.72;;;;;;;;;;5092325;28;20036;-66
2021/12/30 10:25:53;;;;;;;21.13;5.80;;;;;;;;;;5091056;28;20036;-63
2021/12/30 10:28:23;;;;;;;17.83;4.88;;;;;;;;;;5091891;28;20039;-66
2021/12/30 10:30:50;;;;;;;17.17;5.70;;;;;;;;;;5091922;28;20035;-67
2021/12/30 10:33:28;;;;;;;19.70;5.25;;;12.20;99.90;;;;;;5092137;28;20079;-64
2021/12/30 10:35:55;;;;;;;15.88;4.15;;;;;;;;;;5091598;28;20039;-64
2021/12/30 10:38:21;;;;;;;21.63;5.40;;;;;;;;;;5090502;28;20039;-65
2021/12/30 10:40:49;;;;;;;20.92;4.93;;;;;;;;;;5091893;28;20035;-68
2021/12/30 10:46:12;;;;;;;20.40;4.90;;;;;;;;;;5085625;28;20043;-64
2021/12/30 10:48:52;;;;;;;21.45;5.53;;;;;;;;;;5072794;28;20135;-64
2021/12/30 10:51:23;;;;;;;24.95;5.32;;;;;;;;;;5090455;28;20058;-67
2021/12/30 10:53:49;;;;;;;22.23;5.68;;;;;;;;;;5090290;28;20119;-65
2021/12/30 10:56:23;;;;;;;26.98;5.95;;;;;;;;;;5091909;28;20032;-64
2021/12/30 10:58:50;;;;;;;23.02;5.70;;;;;;;;;;5089649;28;20044;-64
2021/12/30 11:01:21;;;;;;;24.75;5.78;;;;;;;;;;5090677;28;20136;-65
2021/12/30 11:03:57;;;;;;;34.05;6.18;;;;;;;;;;5090074;28;20137;-65
2021/12/30 11:06:24;;;;;;;33.40;6.88;;;;;;;;;;5091479;28;20424;-66
2021/12/30 11:09:03;;;;;;;31.25;5.70;;;;;;;;;;5091119;28;20450;-65
2021/12/30 11:11:29;;;;;;;30.20;6.35;;;;;;;;;;5091054;28;20052;-64
2021/12/30 11:14:01;;;;;;;41.05;6.20;;;;;;;;;;5091284;28;20047;-64
2021/12/30 11:16:28;;;;;;;27.00;5.65;;;;;;;;;;5090977;28;20047;-64
2021/12/30 11:18:56;;;;;;;32.92;6.15;;;;;;;;;;5091331;28;20032;-63
2021/12/30 11:21:41;;;;;;;25.58;5.72;;;12.10;99.90;;;;;;5091035;28;20461;-67
2021/12/30 11:24:08;;;;;;;30.17;6.30;;;;;;;;;;5091184;28;20046;-65
2021/12/30 11:26:35;;;;;;;21.23;4.32;;;;;;;;;;5090004;28;20048;-66
2021/12/30 11:29:01;;;;;;;30.80;5.22;;;;;;;;;;5089938;28;20501;-64
2021/12/30 11:31:29;;;;;;;25.38;5.07;;;;;;;;;;5089736;28;20051;-64
2021/12/30 11:33:55;;;;;;;25.88;4.82;;;;;;;;;;5090696;28;20036;-65
2021/12/30 11:36:21;;;;;;;24.73;4.85;;;;;;;;;;5091156;28;20059;-64
2021/12/30 11:38:47;;;;;;;25.05;4.70;;;;;;;;;;5090858;28;20398;-66
2021/12/30 11:41:21;;;;;;;22.75;4.47;;;;;;;;;;5090887;28;20448;-63
2021/12/30 11:43:51;;;;;;;27.23;4.43;;;;;;;;;;5090708;28;20516;-63
2021/12/30 11:46:39;;;;;;;20.13;3.83;;;12.00;99.90;;;;;;5090871;28;20040;-66
2021/12/30 11:49:06;;;;;;;26.60;4.28;;;;;;;;;;5090029;28;20367;-65
2021/12/30 11:51:49;;;;;;;27.05;5.25;;;;;;;;;;5090690;28;20127;-65
2021/12/30 11:54:35;;;;;;;21.00;3.83;;;;;;;;;;5090936;28;20043;-64
2021/12/30 11:57:34;;;;;;;20.67;4.38;;;12.40;99.90;;;;;;5090529;28;20043;-65
2021/12/30 12:00:01;;;;;;;18.35;3.85;;;;;;;;;;5090916;28;20047;-65
2021/12/30 12:02:30;;;;;;;20.63;4.13;;;;;;;;;;5090667;28;20036;-67
2021/12/30 12:04:57;;;;;;;24.27;4.30;;;;;;;;;;5090565;28;20136;-64
2021/12/30 12:07:23;;;;;;;30.48;5.43;;;;;;;;;;5090754;28;20055;-65
2021/12/30 12:09:49;;;;;;;24.35;4.78;;;;;;;;;;5089428;28;20135;-66
2021/12/30 12:12:28;;;;;;;26.80;4.50;;;;;;;;;;5090575;28;20043;-68
2021/12/30 12:14:56;;;;;;;25.50;4.53;;;;;;;;;;5090258;28;20072;-67
2021/12/30 12:17:30;;;;;;;19.85;3.67;;;;;;;;;;5090599;28;20049;-64
2021/12/30 12:19:56;;;;;;;20.48;4.10;;;;;;;;;;5090328;28;20561;-66
2021/12/30 12:22:24;;;;;;;19.27;3.75;;;;;;;;;;5090681;28;20074;-67
2021/12/30 12:25:12;;;;;;;23.88;3.90;;;12.30;99.90;;;;;;5089118;28;20044;-66
2021/12/30 12:27:39;;;;;;;23.13;4.35;;;;;;;;;;5080475;28;20087;-66
2021/12/30 12:30:07;;;;;;;18.58;4.25;;;;;;;;;;5090306;28;20094;-66
2021/12/30 12:32:33;;;;;;;26.58;4.78;;;;;;;;;;5090379;28;20051;-65
2021/12/30 12:35:03;;;;;;;18.48;3.85;;;11.90;99.90;;;;;;5090294;28;20080;-66
2021/12/30 12:37:32;;;;;;;24.15;4.30;;;;;;;;;;5088613;28;20048;-66
2021/12/30 12:40:03;;;;;;;18.25;4.03;;;;;;;;;;5089953;28;20040;-67
2021/12/30 12:42:48;;;;;;;17.77;3.58;;;;;;;;;;5090490;28;20044;-66
2021/12/30 12:45:31;;;;;;;19.27;3.80;;;;;;;;;;5090321;28;20044;-67
2021/12/30 12:48:18;;;;;;;15.18;3.42;;;12.50;99.90;;;;;;5089994;28;20077;-67
2021/12/30 12:50:46;;;;;;;17.35;3.63;;;12.50;99.90;;;;;;5090426;28;20059;-65
2021/12/30 12:53:24;;;;;;;20.05;3.55;;;;;;;;;;5089884;28;20635;-67
2021/12/30 12:55:58;;;;;;;25.15;4.57;;;12.20;99.90;;;;;;5090262;28;20036;-64
2021/12/30 12:58:27;;;;;;;16.48;3.35;;;;;;;;;;5090318;28;20040;-65
2021/12/30 13:00:56;;;;;;;21.52;3.65;;;;;;;;;;5092811;28;20032;-65
2021/12/30 13:03:22;;;;;;;18.95;3.78;;;;;;;;;;5094139;28;20054;-66
2021/12/30 13:06:00;;;;;;;20.13;4.65;;;;;;;;;;5093920;28;20040;-69
2021/12/30 13:08:26;;;;;;;26.90;4.53;;;;;;;;;;5093928;28;20051;-69
2021/12/30 13:10:53;;;;;;;24.20;3.65;;;;;;;;;;5092484;28;20039;-66
2021/12/30 13:13:28;;;;;;;26.25;4.40;;;;;;;;;;5093164;28;20498;-70
2021/12/30 13:15:55;;;;;;;23.38;4.18;;;;;;;;;;5093798;28;20446;-69
2021/12/30 13:18:21;;;;;;;18.88;3.80;;;;;;;;;;5091851;28;20051;-68
2021/12/30 13:20:48;;;;;;;20.63;3.90;;;;;;;;;;5092140;28;20544;-67
2021/12/30 13:23:25;;;;;;;17.73;3.95;;;;;;;;;;5093130;28;20047;-66
2021/12/30 13:25:58;;;;;;;16.88;3.70;;;;;;;;;;5093495;28;20577;-68
2021/12/30 13:28:25;;;;;;;20.33;3.63;;;;;;;;;;5093365;28;20052;-68
2021/12/30 13:30:51;;;;;;;18.23;4.15;;;;;;;;;;5093378;28;20497;-66
2021/12/30 13:33:17;;;;;;;19.35;3.88;;;;;;;;;;5092919;28;20476;-66
2021/12/30 13:35:44;;;;;;;23.67;3.75;;;;;;;;;;5091849;28;20040;-69
2021/12/30 13:38:11;;;;;;;19.33;3.15;;;;;;;;;;5093060;28;20038;-66
2021/12/30 13:40:42;;;;;;;17.77;4.22;;;;;;;;;;5091840;28;20096;-67
2021/12/30 13:43:08;;;;;;;18.50;3.97;;;;;;;;;;5091936;28;20075;-65
2021/12/30 13:45:36;;;;;;;20.17;3.53;;;;;;;;;;5092712;28;20278;-65
2021/12/30 13:48:18;;;;;;;18.85;3.85;;;;;;;;;;5092945;28;20044;-65
2021/12/30 13:50:45;;;;;;;21.00;3.85;;;;;;;;;;5092769;28;20039;-68
2021/12/30 13:53:16;;;;;;;17.42;3.40;;;;;;;;;;5092753;28;20525;-69
2021/12/30 13:56:01;;;;;;;12.00;3.45;;;;;;;;;;5092931;28;20040;-65
2021/12/30 13:58:31;;;;;;;15.88;3.38;;;;;;;;;;5092744;28;20402;-66
2021/12/30 14:01:03;;;;;;;17.38;3.47;;;;;;;;;;5093275;28;20032;-65
2021/12/30 14:03:31;;;;;;;17.98;3.90;;;;;;;;;;5092482;28;20036;-67
2021/12/30 14:06:14;;;;;;;16.65;3.40;;;;;;;;;;5091408;28;20032;-70
2021/12/30 14:08:40;;;;;;;;;;;;;;;;;;5092846;28;20035;-66
2021/12/30 14:11:07;;;;;;;17.77;4.00;;;;;;;;;;5091537;28;19920;-67
2021/12/30 14:13:39;;;;;;;17.88;3.10;;;12.30;99.90;;;;;;5092046;28;20036;-67
2021/12/30 14:16:05;;;;;;;16.23;3.10;;;;;;;;;;5092580;28;20134;-67
2021/12/30 14:18:32;;;;;;;15.68;3.63;;;;;;;;;;5092178;28;20286;-67
2021/12/30 14:20:59;;;;;;;17.95;3.95;;;;;;;;;;5092387;28;20489;-67
2021/12/30 14:23:29;;;;;;;19.05;4.28;;;;;;;;;;5092010;28;20402;-67
2021/12/30 14:25:55;;;;;;;20.98;3.78;;;;;;;;;;5090838;28;20040;-67
2021/12/30 14:28:26;;;;;;;19.48;3.70;;;;;;;;;;5091992;28;20054;-69
2021/12/30 14:30:54;;;;;;;17.02;4.32;;;12.20;99.90;;;;;;5092260;28;20113;-68
2021/12/30 14:33:30;;;;;;;18.83;3.97;;;;;;;;;;5090668;28;20118;-68
2021/12/30 14:36:13;;;;;;;14.43;3.75;;;;;;;;;;5090717;28;20036;-68